Time;durP1;ratioP1;P1;durP2;ratioP2;P2;SDS_P1;SDS_P2;PMS_P1;PMS_P2;Temp;Humidity;BMP_temperature;BMP_pressure;BME280_temperature;BME280_humidity;BME280_pressure;Samples;Min_cycle;Max_cycle;Signal;HPM_P1;HPM_P2
2021/09/12 00:02:16;;;;;;;5.60;3.13;;;;;;;;;;5074392;28;20044;-68
2021/09/12 00:04:42;;;;;;;4.55;2.70;;;;;;;;;;5073176;28;20056;-69
2021/09/12 00:07:10;;;;;;;4.90;3.33;;;;;;;;;;5073298;28;20049;-69
2021/09/12 00:09:36;;;;;;;5.65;3.38;;;;;;;;;;5072930;28;20048;-70
2021/09/12 00:12:03;;;;;;;6.15;3.35;;;;;;;;;;5074227;28;20051;-69
2021/09/12 00:14:30;;;;;;;4.63;2.95;;;;;;;;;;5072196;28;20049;-69
2021/09/12 00:16:56;;;;;;;4.70;3.08;;;;;;;;;;5071044;28;20056;-70
2021/09/12 00:19:24;;;;;;;5.68;2.97;;;;;;;;;;5072194;28;20053;-69
2021/09/12 00:21:51;;;;;;;5.05;2.95;;;;;;;;;;5072814;28;20083;-69
2021/09/12 00:24:19;;;;;;;5.05;3.00;;;;;;;;;;5072219;28;20052;-70
2021/09/12 00:26:45;;;;;;;4.45;2.90;;;;;;;;;;5072858;28;20049;-68
2021/09/12 00:29:12;;;;;;;4.78;3.15;;;;;;;;;;5072820;28;20052;-70
2021/09/12 00:31:38;;;;;;;3.92;2.55;;;;;;;;;;5069875;28;20083;-68
2021/09/12 00:34:05;;;;;;;5.30;2.97;;;;;;;;;;5073401;28;20445;-69
2021/09/12 00:36:32;;;;;;;5.65;2.83;;;;;;;;;;5072612;28;20044;-69
2021/09/12 00:38:58;;;;;;;4.40;2.38;;;;;;;;;;5069902;28;20126;-69
2021/09/12 00:41:26;;;;;;;4.40;2.65;;;;;;;;;;5072230;28;20049;-69
2021/09/12 00:43:53;;;;;;;4.28;2.53;;;;;;;;;;5071536;28;20044;-69
2021/09/12 00:46:19;;;;;;;4.18;2.60;;;;;;;;;;5071800;28;20051;-69
2021/09/12 00:48:45;;;;;;;6.50;3.03;;;;;;;;;;5072018;28;20052;-68
2021/09/12 00:51:12;;;;;;;4.78;2.90;;;;;;;;;;5072456;28;20383;-67
2021/09/12 00:53:39;;;;;;;4.20;2.58;;;;;;;;;;5068034;28;20474;-67
2021/09/12 00:56:06;;;;;;;3.70;2.40;;;;;;;;;;5072319;28;20530;-69
2021/09/12 00:58:34;;;;;;;4.45;2.80;;;;;;;;;;5072002;28;20059;-69
2021/09/12 01:01:01;;;;;;;4.82;2.63;;;;;;;;;;5069817;28;20514;-70
2021/09/12 01:03:27;;;;;;;5.07;2.53;;;;;;;;;;5071380;28;20048;-69
2021/09/12 01:05:54;;;;;;;4.35;2.40;;;;;;;;;;5069983;28;20414;-70
2021/09/12 01:08:20;;;;;;;5.75;2.90;;;;;;;;;;5071894;28;20068;-70
2021/09/12 01:10:48;;;;;;;4.13;2.65;;;;;;;;;;5071930;28;20052;-67
2021/09/12 01:13:15;;;;;;;4.70;2.50;;;;;;;;;;5071086;28;20070;-70
2021/09/12 01:15:43;;;;;;;5.10;2.40;;;;;;;;;;5072018;28;20060;-69
2021/09/12 01:18:09;;;;;;;5.10;2.97;;;;;;;;;;5069369;28;20060;-69
2021/09/12 01:20:36;;;;;;;4.88;3.05;;;;;;;;;;5070774;28;20048;-70
2021/09/12 01:23:06;;;;;;;4.13;2.65;;;;;;;;;;5071919;28;20044;-69
2021/09/12 01:25:34;;;;;;;3.40;2.20;;;;;;;;;;5072020;28;20475;-69
2021/09/12 01:28:02;;;;;;;6.10;3.15;;;;;;;;;;5071163;28;20059;-70
2021/09/12 01:30:29;;;;;;;4.05;2.67;;;;;;;;;;5069639;28;20040;-70
2021/09/12 01:32:56;;;;;;;4.18;2.63;;;;;;;;;;5068492;28;20064;-69
2021/09/12 01:35:22;;;;;;;6.05;2.88;;;;;;;;;;5065128;28;20048;-69
2021/09/12 01:37:48;;;;;;;4.38;2.70;;;;;;;;;;5067108;28;20483;-70
2021/09/12 01:40:15;;;;;;;6.07;3.60;;;;;;;;;;5070672;28;20512;-70
2021/09/12 01:42:43;;;;;;;6.03;2.55;;;;;;;;;;5065383;28;20052;-69
2021/09/12 01:45:09;;;;;;;3.67;2.58;;;;;;;;;;5067968;28;20055;-71
2021/09/12 01:47:36;;;;;;;5.03;2.80;;;;;;;;;;5070876;28;20497;-70
2021/09/12 01:50:03;;;;;;;3.95;2.30;;;;;;;;;;5070562;28;20410;-69
2021/09/12 01:52:30;;;;;;;3.63;2.65;;;;;;;;;;5071185;28;20419;-68
2021/09/12 01:54:56;;;;;;;7.43;3.13;;;;;;;;;;5051786;28;20426;-70
2021/09/12 01:57:23;;;;;;;6.05;3.65;;;;;;;;;;5068265;28;20569;-70
2021/09/12 01:59:50;;;;;;;3.65;2.28;;;;;;;;;;5071133;28;20047;-70
2021/09/12 02:02:17;;;;;;;4.68;2.60;;;;;;;;;;5070648;28;20051;-70
2021/09/12 02:04:43;;;;;;;3.80;2.53;;;;;;;;;;5070402;28;20052;-69
2021/09/12 02:07:10;;;;;;;4.00;2.40;;;;;;;;;;5071470;28;20051;-70
2021/09/12 02:09:36;;;;;;;5.53;2.65;;;;;;;;;;5071574;28;20082;-69
2021/09/12 02:12:03;;;;;;;5.18;2.97;;;;;;;;;;5071108;28;20075;-69
2021/09/12 02:14:30;;;;;;;4.40;2.75;;;;;;;;;;5052971;28;20049;-69
2021/09/12 02:16:58;;;;;;;4.63;2.42;;;;;;;;;;5051188;28;20064;-69
2021/09/12 02:19:24;;;;;;;4.32;2.70;;;;;;;;;;5061494;28;20060;-68
2021/09/12 02:21:51;;;;;;;3.65;2.40;;;;;;;;;;5061990;28;20041;-70
2021/09/12 02:24:17;;;;;;;4.60;2.63;;;;;;;;;;5069748;28;20059;-68
2021/09/12 02:26:44;;;;;;;4.50;2.50;;;;;;;;;;5071364;28;20483;-69
2021/09/12 02:29:10;;;;;;;3.60;2.65;;;;;;;;;;5071496;28;20052;-68
2021/09/12 02:31:36;;;;;;;3.92;2.60;;;;;;;;;;5071479;28;20057;-71
2021/09/12 02:34:04;;;;;;;3.42;2.28;;;;;;;;;;5068153;28;20036;-67
2021/09/12 02:36:31;;;;;;;4.32;3.00;;;;;;;;;;5071312;28;20045;-70
2021/09/12 02:38:57;;;;;;;4.50;2.80;;;;;;;;;;5071149;28;20402;-67
2021/09/12 02:41:24;;;;;;;4.10;2.70;;;;;;;;;;5071290;28;20052;-69
2021/09/12 02:43:50;;;;;;;4.85;2.55;;;;;;;;;;5058053;28;20049;-70
2021/09/12 02:46:17;;;;;;;3.75;2.85;;;;;;;;;;5051197;28;20062;-69
2021/09/12 02:48:43;;;;;;;4.75;2.50;;;;;;;;;;5051352;28;20057;-68
2021/09/12 02:51:11;;;;;;;3.58;2.17;;;;;;;;;;5051216;28;20410;-69
2021/09/12 02:53:37;;;;;;;3.60;2.42;;;;;;;;;;5066112;28;20044;-67
2021/09/12 02:56:04;;;;;;;3.75;2.28;;;;;;;;;;5071140;28;20045;-67
2021/09/12 02:58:31;;;;;;;4.68;2.22;;;;;;;;;;5070845;28;20048;-68
2021/09/12 03:00:57;;;;;;;3.75;2.53;;;;;;;;;;5071095;28;20056;-68
2021/09/12 03:03:24;;;;;;;4.50;2.30;;;;;;;;;;5064961;28;20067;-68
2021/09/12 03:05:51;;;;;;;4.75;2.83;;;;;;;;;;5052290;28;20136;-68
2021/09/12 03:08:19;;;;;;;3.92;2.22;;;;;;;;;;5070947;28;20095;-69
2021/09/12 03:10:46;;;;;;;5.07;2.47;;;;;;;;;;5070776;28;20779;-68
2021/09/12 03:13:12;;;;;;;4.22;2.63;;;;;;;;;;5063172;28;20478;-67
2021/09/12 03:15:39;;;;;;;5.28;2.40;;;;;;;;;;5051248;28;20051;-68
2021/09/12 03:18:05;;;;;;;5.63;2.08;;;;;;;;;;5054592;28;20056;-68
2021/09/12 03:20:32;;;;;;;2.95;2.00;;;;;;;;;;5065739;28;20495;-66
2021/09/12 03:22:59;;;;;;;3.60;2.40;;;;;;;;;;5075031;28;20044;-68
2021/09/12 03:25:26;;;;;;;4.75;2.58;;;;;;;;;;5074238;28;20475;-68
2021/09/12 03:27:53;;;;;;;5.60;2.53;;;;;;;;;;5074334;28;20044;-66
2021/09/12 03:30:20;;;;;;;3.63;2.47;;;;;;;;;;5074099;28;20076;-69
2021/09/12 03:32:47;;;;;;;4.60;2.30;;;;;;;;;;5073731;28;20056;-66
2021/09/12 03:35:13;;;;;;;4.47;3.28;;;;;;;;;;5054446;28;20052;-66
2021/09/12 03:37:40;;;;;;;4.93;2.42;;;;;;;;;;5054047;28;20052;-67
2021/09/12 03:40:08;;;;;;;4.55;2.30;;;;;;;;;;5053926;28;20088;-67
2021/09/12 03:42:36;;;;;;;4.22;2.58;;;;;;;;;;5056806;28;20056;-68
2021/09/12 03:45:02;;;;;;;3.92;2.42;;;;;;;;;;5054536;28;20045;-66
2021/09/12 03:47:29;;;;;;;4.70;2.55;;;;;;;;;;5062487;28;20048;-68
2021/09/12 03:49:55;;;;;;;5.30;2.15;;;;;;;;;;5073945;28;20045;-68
2021/09/12 03:52:22;;;;;;;6.50;3.08;;;;;;;;;;5072679;28;20059;-69
2021/09/12 03:54:48;;;;;;;4.88;2.15;;;;;;;;;;5053655;28;20072;-69
2021/09/12 03:57:15;;;;;;;4.88;2.28;;;;;;;;;;5053545;28;20056;-67
2021/09/12 03:59:43;;;;;;;3.85;2.60;;;;;;;;;;5053795;28;20433;-68
2021/09/12 04:02:09;;;;;;;4.88;2.25;;;;;;;;;;5068245;28;20131;-68
2021/09/12 04:04:36;;;;;;;9.43;2.75;;;;;;;;;;5066352;28;20047;-69
2021/09/12 04:07:02;;;;;;;3.80;2.45;;;;;;;;;;5067805;28;20047;-66
2021/09/12 04:09:29;;;;;;;4.13;2.50;;;;;;;;;;5072519;28;20479;-66
2021/09/12 04:11:55;;;;;;;6.18;2.55;;;;;;;;;;5073691;28;20689;-69
2021/09/12 04:14:21;;;;;;;4.38;2.60;;;;;;;;;;5071896;28;20541;-69
2021/09/12 04:16:49;;;;;;;4.28;2.53;;;;;;;;;;5073197;28;20051;-69
2021/09/12 04:19:16;;;;;;;4.80;2.88;;;;;;;;;;5073486;28;20406;-68
2021/09/12 04:21:42;;;;;;;4.55;2.47;;;;;;;;;;5071488;28;20194;-68
2021/09/12 04:24:09;;;;;;;4.38;2.35;;;;;;;;;;5071851;28;20040;-66
2021/09/12 04:26:35;;;;;;;4.80;2.47;;;;;;;;;;5055088;28;20053;-68
2021/09/12 04:29:02;;;;;;;5.70;2.30;;;;;;;;;;5053183;28;20403;-66
2021/09/12 04:31:28;;;;;;;5.15;2.75;;;;;;;;;;5053000;28;20047;-66
2021/09/12 04:33:57;;;;;;;4.63;2.80;;;;;;;;;;5058277;28;20060;-69
2021/09/12 04:36:23;;;;;;;4.57;2.63;;;;;;;;;;5052920;28;20052;-70
2021/09/12 04:38:50;;;;;;;5.28;2.90;;;;;;;;;;5053054;28;20044;-68
2021/09/12 04:41:16;;;;;;;4.03;2.53;;;;;;;;;;5052797;28;20064;-68
2021/09/12 04:43:43;;;;;;;5.28;2.72;;;;;;;;;;5055788;28;20046;-69
2021/09/12 04:46:10;;;;;;;7.70;4.78;;;;;;;;;;5052985;28;20545;-69
2021/09/12 04:48:36;;;;;;;7.95;5.50;;;;;;;;;;5052640;28;20056;-66
2021/09/12 04:51:04;;;;;;;7.20;4.05;;;;;;;;;;5052712;28;20064;-68
2021/09/12 04:53:31;;;;;;;7.07;3.58;;;;;;;;;;5066581;28;20048;-67
2021/09/12 04:55:57;;;;;;;5.45;3.30;;;;;;;;;;5072709;28;20056;-66
2021/09/12 04:58:24;;;;;;;5.65;3.20;;;;;;;;;;5072744;28;20055;-66
2021/09/12 05:00:50;;;;;;;5.03;3.00;;;;;;;;;;5072628;28;20505;-66
2021/09/12 05:03:16;;;;;;;7.82;3.33;;;;;;;;;;5064470;28;20041;-66
2021/09/12 05:05:43;;;;;;;4.95;2.88;;;;;;;;;;5052440;28;20067;-68
2021/09/12 05:08:11;;;;;;;7.25;3.40;;;;;;;;;;5052512;28;20045;-67
2021/09/12 05:10:37;;;;;;;6.20;3.20;;;;;;;;;;5052363;28;20135;-68
2021/09/12 05:13:04;;;;;;;6.32;3.28;;;;;;;;;;5055324;28;20049;-69
2021/09/12 05:15:30;;;;;;;4.53;2.65;;;;;;;;;;5052199;28;20052;-66
2021/09/12 05:17:57;;;;;;;5.07;2.60;;;;;;;;;;5052497;28;20056;-68
2021/09/12 05:20:23;;;;;;;4.72;3.03;;;;;;;;;;5052049;28;20052;-68
2021/09/12 05:22:50;;;;;;;6.28;3.20;;;;;;;;;;5067200;28;20387;-68
2021/09/12 05:25:18;;;;;;;5.13;3.00;;;;;;;;;;5071903;28;20044;-67
2021/09/12 05:27:44;;;;;;;6.97;2.97;;;;;;;;;;5052470;28;20075;-68
2021/09/12 05:30:11;;;;;;;12.45;3.97;;;;;;;;;;5051943;28;20052;-69
2021/09/12 05:32:38;;;;;;;7.43;3.08;;;;;;;;;;5055267;28;20048;-69
2021/09/12 05:35:05;;;;;;;5.82;2.90;;;;;;;;;;5068418;28;20048;-67
2021/09/12 05:37:32;;;;;;;6.78;4.05;;;;;;;;;;5054985;28;20056;-67
2021/09/12 05:39:58;;;;;;;6.53;3.80;;;;;;;;;;5051418;28;20053;-68
2021/09/12 05:42:26;;;;;;;6.35;4.10;;;;;;;;;;5054914;28;20055;-69
2021/09/12 05:44:53;;;;;;;6.47;4.82;;;;;;;;;;5051682;28;20041;-70
2021/09/12 05:47:19;;;;;;;6.40;4.72;;;;;;;;;;5051448;28;20049;-67
2021/09/12 05:49:45;;;;;;;11.60;4.05;;;;;;;;;;5051450;28;20045;-69
2021/09/12 05:52:12;;;;;;;4.93;3.10;;;;;;;;;;5055800;28;20055;-69
2021/09/12 05:54:38;;;;;;;7.82;4.03;;;;;;;;;;5070279;28;20048;-67
2021/09/12 05:57:05;;;;;;;6.38;3.38;;;;;;;;;;5071604;28;20055;-67
2021/09/12 05:59:33;;;;;;;8.20;3.65;;;;;;;;;;5071967;28;20045;-67
2021/09/12 06:01:59;;;;;;;6.22;3.55;;;;;;;;;;5072250;28;20060;-69
2021/09/12 06:04:26;;;;;;;7.00;3.60;;;;;;;;;;5071294;28;20052;-69
2021/09/12 06:06:52;;;;;;;8.00;4.60;;;;;;;;;;5071397;28;20564;-70
2021/09/12 06:09:19;;;;;;;8.55;4.50;;;;;;;;;;5071543;28;20048;-70
2021/09/12 06:11:46;;;;;;;10.55;4.90;;;;;;;;;;5065794;28;20053;-67
2021/09/12 06:14:12;;;;;;;12.07;5.72;;;;;;;;;;5055022;28;20080;-70
2021/09/12 06:16:40;;;;;;;9.90;5.25;;;;;;;;;;5051544;28;20143;-67
2021/09/12 06:19:07;;;;;;;10.18;5.32;;;;;;;;;;5051515;28;20052;-69
2021/09/12 06:21:33;;;;;;;9.07;5.30;;;;;;;;;;5050961;28;20053;-69
2021/09/12 06:24:00;;;;;;;11.20;6.32;;;;;;;;;;5065449;28;20414;-67
2021/09/12 06:26:27;;;;;;;8.52;5.35;;;;;;;;;;5062508;28;20045;-69
2021/09/12 06:28:53;;;;;;;11.98;6.07;;;;;;;;;;5051464;28;20498;-69
2021/09/12 06:31:20;;;;;;;11.35;5.75;;;;;;;;;;5051322;28;20056;-70
2021/09/12 06:33:48;;;;;;;11.27;6.25;;;;;;;;;;5067023;28;20060;-69
2021/09/12 06:36:15;;;;;;;10.10;5.43;;;;;;;;;;5071258;28;20067;-70
2021/09/12 06:38:42;;;;;;;10.25;6.30;;;;;;;;;;5070998;28;20058;-69
2021/09/12 06:41:08;;;;;;;8.32;5.65;;;;;;;;;;5071230;28;20530;-69
2021/09/12 06:43:35;;;;;;;8.50;5.82;;;;;;;;;;5071445;28;20052;-69
2021/09/12 06:46:01;;;;;;;11.10;6.40;;;;;;;;;;5070893;28;20059;-69
2021/09/12 06:48:28;;;;;;;10.07;5.30;;;;;;;;;;5070849;28;20048;-70
2021/09/12 06:50:57;;;;;;;7.68;4.90;;;;;;;;;;5071984;28;20059;-69
2021/09/12 06:53:24;;;;;;;9.73;5.78;;;;;;;;;;5075233;28;20139;-69
2021/09/12 06:55:50;;;;;;;8.75;5.47;;;;;;;;;;5074563;28;20055;-69
2021/09/12 06:58:18;;;;;;;11.18;5.93;;;;;;;;;;5074680;28;20052;-69
2021/09/12 07:00:45;;;;;;;9.40;5.53;;;;;;;;;;5074860;28;20058;-68
2021/09/12 07:03:11;;;;;;;9.50;6.72;;;;;;;;;;5072463;28;20518;-70
2021/09/12 07:05:38;;;;;;;10.35;5.95;;;;;;;;;;5064124;28;20040;-67
2021/09/12 07:08:06;;;;;;;9.18;5.78;;;;;;;;;;5054870;28;20052;-68
2021/09/12 07:10:33;;;;;;;13.82;6.53;;;;;;;;;;5054773;28;20053;-69
2021/09/12 07:12:59;;;;;;;12.07;6.57;;;;;;;;;;5057631;28;20041;-69
2021/09/12 07:15:26;;;;;;;10.10;6.70;;;;;;;;;;5054488;28;20041;-70
2021/09/12 07:17:52;;;;;;;9.75;7.15;;;;;;;;;;5054424;28;20065;-67
2021/09/12 07:20:18;;;;;;;12.38;7.47;;;;;;;;;;5054596;28;20060;-67
2021/09/12 07:22:46;;;;;;;11.27;6.55;;;;;;;;;;5061910;28;20055;-69
2021/09/12 07:25:14;;;;;;;16.40;8.20;;;;;;;;;;5070789;28;20075;-70
2021/09/12 07:27:41;;;;;;;11.40;7.35;;;;;;;;;;5063516;28;20040;-67
2021/09/12 07:30:08;;;;;;;13.32;7.90;;;;;;;;;;5054299;28;20561;-70
2021/09/12 07:32:35;;;;;;;11.70;7.32;;;;;;;;;;5057391;28;20502;-69
2021/09/12 07:35:02;;;;;;;10.43;7.50;;;;;;;;;;5054337;28;20497;-68
2021/09/12 07:37:29;;;;;;;11.95;7.35;;;;;;;;;;5054175;28;20555;-67
2021/09/12 07:39:56;;;;;;;10.43;7.55;;;;;;;;;;5053638;28;20503;-68
2021/09/12 07:42:24;;;;;;;10.57;7.45;;;;;;;;;;5059422;28;20097;-69
2021/09/12 07:44:51;;;;;;;9.57;7.00;;;;;;;;;;5052751;28;20460;-69
2021/09/12 07:47:17;;;;;;;9.57;6.43;;;;;;;;;;5054168;28;20049;-68
2021/09/12 07:49:44;;;;;;;12.55;7.25;;;;;;;;;;5053814;28;20461;-68
2021/09/12 07:52:11;;;;;;;12.45;7.00;;;;;;;;;;5057798;28;20049;-68
2021/09/12 07:54:37;;;;;;;9.68;6.82;;;;;;;;;;5072552;28;20363;-68
2021/09/12 07:57:04;;;;;;;11.52;8.32;;;;;;;;;;5073524;28;20056;-67
2021/09/12 07:59:32;;;;;;;12.27;7.57;;;;;;;;;;5074009;28;20048;-67
2021/09/12 08:01:58;;;;;;;11.35;7.90;;;;;;;;;;5071511;28;20044;-67
2021/09/12 08:04:25;;;;;;;8.85;6.70;;;;;;;;;;5071253;28;20045;-69
2021/09/12 08:06:51;;;;;;;10.77;7.05;;;;;;;;;;5073624;28;20052;-68
2021/09/12 08:09:18;;;;;;;12.80;7.32;;;;;;;;;;5073637;28;20414;-67
2021/09/12 08:11:44;;;;;;;8.95;6.55;;;;;;;;;;5073028;28;20056;-68
2021/09/12 08:14:11;;;;;;;11.40;7.65;;;;;;;;;;5059169;28;20406;-67
2021/09/12 08:16:38;;;;;;;10.55;7.72;;;;;;;;;;5053344;28;20394;-69
2021/09/12 08:19:05;;;;;;;9.30;6.90;;;;;;;;;;5053217;28;20052;-69
2021/09/12 08:21:31;;;;;;;11.25;6.93;;;;;;;;;;5052880;28;20056;-67
2021/09/12 08:23:58;;;;;;;10.25;6.90;;;;;;;;;;5067870;28;20055;-66
2021/09/12 08:26:24;;;;;;;10.80;7.05;;;;;;;;;;5067926;28;20055;-69
2021/09/12 08:28:51;;;;;;;11.40;6.47;;;;;;;;;;5055490;28;20052;-69
2021/09/12 08:31:17;;;;;;;8.88;6.60;;;;;;;;;;5071952;28;20044;-68
2021/09/12 08:33:45;;;;;;;10.23;6.38;;;;;;;;;;5068635;28;20071;-70
2021/09/12 08:36:12;;;;;;;9.05;6.85;;;;;;;;;;5072479;28;20049;-68
2021/09/12 08:38:38;;;;;;;11.35;7.53;;;;;;;;;;5073011;28;20048;-70
2021/09/12 08:41:06;;;;;;;10.40;7.03;;;;;;;;;;5073070;28;20051;-70
2021/09/12 08:43:33;;;;;;;10.45;8.15;;;;;;;;;;5059526;28;20128;-70
2021/09/12 08:46:00;;;;;;;9.40;6.40;;;;;;;;;;5061414;28;20049;-69
2021/09/12 08:48:26;;;;;;;9.10;6.75;;;;;;;;;;5069973;28;20044;-70
2021/09/12 08:50:54;;;;;;;12.48;8.02;;;;;;;;;;5071960;28;20052;-70
2021/09/12 08:53:20;;;;;;;10.98;7.95;;;;;;;;;;5072264;28;20056;-68
2021/09/12 08:55:47;;;;;;;8.98;7.05;;;;;;;;;;5071922;28;20434;-69
2021/09/12 08:58:13;;;;;;;8.88;6.05;;;;;;;;;;5072296;28;20617;-71
2021/09/12 09:00:44;;;;;;;8.75;6.97;;;;;;;;;;5069295;28;20053;-68
2021/09/12 09:03:10;;;;;;;12.77;6.90;;;;;;;;;;5054203;28;20122;-70
2021/09/12 09:05:40;;;;;;;8.38;5.75;;;;;;;;;;5052422;28;20045;-68
2021/09/12 09:08:09;;;;;;;9.10;6.55;;;;;;;;;;5069916;28;20510;-69
2021/09/12 09:10:40;;;;;;;10.18;6.47;;;;;;;;;;5071776;28;20402;-68
2021/09/12 09:13:24;;;;;;;7.75;5.72;;;;;;;;;;5071092;28;20111;-69
2021/09/12 09:15:51;;;;;;;8.05;6.13;;;;;;;;;;5055487;28;20044;-69
2021/09/12 09:18:17;;;;;;;7.32;5.95;;;;;;;;;;5071462;28;20407;-69
2021/09/12 09:20:44;;;;;;;9.07;6.80;;;;;;;;;;5071188;28;20056;-69
2021/09/12 09:23:12;;;;;;;10.25;7.13;;;;;;;;;;5059883;28;20059;-70
2021/09/12 09:25:38;;;;;;;8.13;5.65;;;;;;;;;;5062712;28;20055;-70
2021/09/12 09:28:06;;;;;;;7.80;6.00;;;;;;;;;;5062334;28;20056;-69
2021/09/12 09:30:38;;;;;;;11.38;6.13;;;;;;;;;;5063936;28;20045;-69
2021/09/12 09:33:20;;;;;;;8.88;5.80;;;;;;;;;;5057010;28;20060;-69
2021/09/12 09:35:59;;;;;;;8.63;5.50;;;;;;;;;;5062596;28;20048;-69
2021/09/12 09:38:28;;;;;;;8.43;5.57;;;;;;;;;;5068326;28;20045;-70
2021/09/12 09:41:07;;;;;;;7.05;5.20;;;;;;;;;;5069837;28;20402;-69
2021/09/12 09:43:38;;;;;;;7.60;5.93;;;;;;;;;;5070549;28;20044;-68
2021/09/12 09:46:04;;;;;;;8.95;6.07;;;;;;;;;;5065432;28;20041;-69
2021/09/12 09:48:34;;;;;;;7.72;5.72;;;;;;;;;;5067197;28;20045;-69
2021/09/12 09:51:01;;;;;;;7.22;5.38;;;;;;;;;;5063861;28;20075;-69
2021/09/12 09:53:29;;;;;;;6.78;4.97;;;;;;;;;;5057284;28;20099;-69
2021/09/12 09:55:55;;;;;;;5.97;4.25;;;;;;;;;;5070814;28;20045;-69
2021/09/12 09:58:22;;;;;;;5.25;4.15;;;;;;;;;;5071579;28;20059;-68
2021/09/12 10:00:48;;;;;;;5.85;4.43;;;;;;;;;;5070084;28;20044;-69
2021/09/12 10:03:18;;;;;;;4.88;3.72;;;;;;;;;;5064069;28;20572;-68
2021/09/12 10:05:45;;;;;;;5.55;4.32;;;;;;;;;;5070369;28;20053;-69
2021/09/12 10:08:13;;;;;;;7.60;4.10;;;;;;;;;;5071407;28;20106;-68
2021/09/12 10:10:41;;;;;;;7.47;4.05;;;;;;;;;;5071319;28;20643;-68
2021/09/12 10:13:08;;;;;;;5.40;4.03;;;;;;;;;;5071169;28;20059;-68
2021/09/12 10:15:39;;;;;;;4.57;3.20;;;;;;;;;;5071561;28;20045;-68
2021/09/12 10:18:06;;;;;;;4.20;2.85;;;;;;;;;;5071530;28;20056;-68
2021/09/12 10:20:33;;;;;;;4.57;3.10;;;;;;;;;;5071689;28;20505;-68
2021/09/12 10:23:02;;;;;;;6.00;3.60;;;;;;;;;;5070748;28;20040;-69
2021/09/12 10:25:29;;;;;;;4.85;3.30;;;;;;;;;;5073130;28;20174;-68
2021/09/12 10:28:03;;;;;;;5.05;3.40;;;;;;;;;;5070931;28;20040;-68
2021/09/12 10:30:33;;;;;;;5.70;3.30;;;;;;;;;;5066888;28;20087;-68
2021/09/12 10:33:22;;;;;;;5.03;3.85;;;;;;;;;;5075437;28;20087;-68
2021/09/12 10:35:53;;;;;;;5.28;3.38;;;;;;;;;;5075458;28;20051;-68
2021/09/12 10:38:26;;;;;;;4.60;3.53;;;;;;;;;;5075199;28;20056;-69
2021/09/12 10:41:15;;;;;;;4.60;3.13;;;;;;;;;;5074006;28;20083;-68
2021/09/12 10:43:50;;;;;;;4.68;3.40;;;;;;;;;;5074052;28;20483;-68
2021/09/12 10:46:24;;;;;;;4.13;3.00;;;;;;;;;;5071418;28;20048;-68
2021/09/12 10:49:10;;;;;;;4.57;3.40;;;;;;;;;;5074191;28;20047;-68
2021/09/12 10:51:41;;;;;;;3.40;2.70;;;;;;;;;;5073518;28;20059;-68
2021/09/12 10:54:08;;;;;;;5.00;3.28;;;;;;;;;;5073683;28;20060;-68
2021/09/12 10:56:36;;;;;;;5.70;3.67;;;;;;;;;;5073189;28;20474;-68
2021/09/12 10:59:07;;;;;;;4.60;3.40;;;;;;;;;;5068830;28;20499;-68
2021/09/12 11:01:36;;;;;;;4.95;3.47;;;;;;;;;;5067214;28;20402;-68
2021/09/12 11:04:03;;;;;;;3.67;2.80;;;;;;;;;;5074209;28;20067;-70
2021/09/12 11:06:32;;;;;;;4.57;2.88;;;;;;;;;;5074510;28;20048;-72
2021/09/12 11:09:00;;;;;;;3.70;2.58;;;;;;;;;;5074347;28;20048;-69
2021/09/12 11:11:27;;;;;;;6.00;3.05;;;;;;;;;;5074440;28;20056;-69
2021/09/12 11:13:55;;;;;;;13.25;4.45;;;;;;;;;;5074557;28;20460;-70
2021/09/12 11:16:24;;;;;;;14.00;3.95;;;;;;;;;;5074184;28;20048;-69
2021/09/12 11:18:52;;;;;;;6.55;3.25;;;;;;;;;;5066445;28;20044;-69
2021/09/12 11:21:31;;;;;;;9.75;3.47;;;;;;;;;;5074022;28;20048;-70
2021/09/12 11:24:04;;;;;;;10.52;4.10;;;;;;;;;;5074298;28;20084;-70
2021/09/12 11:26:38;;;;;;;7.32;3.58;;;;;;;;;;5074346;28;20475;-69
2021/09/12 11:29:07;;;;;;;13.40;4.18;;;;;;;;;;5066520;28;20056;-67
2021/09/12 11:31:36;;;;;;;10.88;4.03;;;;;;;;;;5064399;28;20048;-67
2021/09/12 11:34:03;;;;;;;34.28;5.72;;;;;;;;;;5062621;28;20049;-68
2021/09/12 11:36:44;;;;;;;7.32;3.08;;;;;;;;;;5053545;28;20159;-69
2021/09/12 11:39:10;;;;;;;6.85;3.08;;;;;;;;;;5057621;28;20048;-68
2021/09/12 11:41:37;;;;;;;4.50;3.08;;;;;;;;;;5073649;28;20419;-68
2021/09/12 11:44:04;;;;;;;3.58;2.70;;;;;;;;;;5073681;28;20151;-68
2021/09/12 11:46:30;;;;;;;4.22;3.45;;;;;;;;;;5072953;28;20072;-69
2021/09/12 11:49:00;;;;;;;4.75;2.85;;;;;;;;;;5068342;28;20060;-69
2021/09/12 11:51:28;;;;;;;4.57;2.97;;;;;;;;;;5071706;28;20047;-69
2021/09/12 11:54:06;;;;;;;4.72;2.67;;;;;;;;;;5073645;28;20051;-69
2021/09/12 11:56:32;;;;;;;5.20;3.08;;;;;;;;;;5073688;28;20059;-68
2021/09/12 11:59:00;;;;;;;3.10;2.50;;;;;;;;;;5060158;28;20057;-68
2021/09/12 12:01:26;;;;;;;4.63;2.90;;;;;;;;;;5062384;28;20426;-68
2021/09/12 12:03:53;;;;;;;3.90;2.63;;;;;;;;;;5073481;28;20052;-68
2021/09/12 12:06:22;;;;;;;4.25;2.80;;;;;;;;;;5073437;28;20390;-68
2021/09/12 12:09:09;;;;;;;4.18;2.40;;;;;;;;;;5073774;28;20048;-68
2021/09/12 12:11:37;;;;;;;3.95;2.80;;;;;;;;;;5073717;28;20086;-69
2021/09/12 12:14:03;;;;;;;4.63;3.00;;;;;;;;;;5073443;28;20518;-69
2021/09/12 12:16:38;;;;;;;3.80;2.50;;;;;;;;;;5073334;28;20050;-68
2021/09/12 12:19:08;;;;;;;4.40;2.67;;;;;;;;;;5073418;28;20049;-69
2021/09/12 12:21:35;;;;;;;3.47;2.30;;;;;;;;;;5073349;28;20052;-69
2021/09/12 12:24:09;;;;;;;6.40;3.00;;;;;;;;;;5073405;28;20078;-67
2021/09/12 12:26:39;;;;;;;5.07;2.80;;;;;;;;;;5073536;28;20044;-66
2021/09/12 12:29:06;;;;;;;6.40;3.15;;;;;;;;;;5069676;28;20051;-68
2021/09/12 12:31:32;;;;;;;3.78;2.80;;;;;;;;;;5062870;28;20056;-68
2021/09/12 12:33:59;;;;;;;5.00;2.83;;;;;;;;;;5066383;28;20045;-68
2021/09/12 12:36:26;;;;;;;4.22;2.10;;;;;;;;;;5073197;28;20471;-68
2021/09/12 12:38:54;;;;;;;3.35;2.38;;;;;;;;;;5072749;28;20526;-68
2021/09/12 12:41:23;;;;;;;6.00;2.45;;;;;;;;;;5073064;28;20049;-68
2021/09/12 12:43:49;;;;;;;5.82;2.63;;;;;;;;;;5072801;28;20443;-68
2021/09/12 12:46:16;;;;;;;3.38;2.75;;;;;;;;;;5072990;28;20048;-68
2021/09/12 12:48:42;;;;;;;3.17;2.17;;;;;;;;;;5072030;28;20056;-68
2021/09/12 12:51:14;;;;;;;3.90;2.40;;;;;;;;;;5072947;28;20048;-68
2021/09/12 12:53:43;;;;;;;2.75;1.90;;;;;;;;;;5073036;28;20074;-68
2021/09/12 12:56:14;;;;;;;3.08;2.15;;;;;;;;;;5072170;28;20045;-68
2021/09/12 12:58:41;;;;;;;4.45;2.47;;;;;;;;;;5061723;28;20492;-68
2021/09/12 13:01:08;;;;;;;2.75;2.17;;;;;;;;;;5065461;28;20506;-68
2021/09/12 13:03:36;;;;;;;4.40;2.60;;;;;;;;;;5072334;28;20049;-68
2021/09/12 13:06:06;;;;;;;4.07;2.42;;;;;;;;;;5066122;28;20056;-68
2021/09/12 13:08:33;;;;;;;4.10;2.50;;;;;;;;;;5054948;28;20091;-68
2021/09/12 13:11:00;;;;;;;4.28;2.47;;;;;;;;;;5052458;28;20045;-68
2021/09/12 13:13:28;;;;;;;5.00;2.42;;;;;;;;;;5052350;28;20053;-68
2021/09/12 13:15:55;;;;;;;4.10;2.05;;;;;;;;;;5052324;28;20060;-68
2021/09/12 13:18:21;;;;;;;4.03;2.55;;;;;;;;;;5052514;28;20067;-68
2021/09/12 13:20:49;;;;;;;3.05;2.17;;;;;;;;;;5051936;28;20059;-67
2021/09/12 13:23:16;;;;;;;4.32;2.60;;;;;;;;;;5069980;28;20044;-67
2021/09/12 13:25:43;;;;;;;3.47;2.42;;;;;;;;;;5071887;28;20060;-68
2021/09/12 13:28:10;;;;;;;2.38;1.88;;;;;;;;;;5066204;28;20036;-67
2021/09/12 13:30:38;;;;;;;4.10;2.38;;;;;;;;;;5066387;28;20706;-68
2021/09/12 13:33:05;;;;;;;3.20;2.20;;;;;;;;;;5070571;28;20044;-68
2021/09/12 13:35:32;;;;;;;3.20;2.00;;;;;;;;;;5063477;28;20056;-67
2021/09/12 13:37:59;;;;;;;2.47;1.90;;;;;;;;;;5059947;28;20502;-68
2021/09/12 13:40:27;;;;;;;3.35;2.13;;;;;;;;;;5052065;28;20056;-69
2021/09/12 13:42:54;;;;;;;3.15;1.92;;;;;;;;;;5051974;28;20044;-69
2021/09/12 13:45:20;;;;;;;2.60;2.00;;;;;;;;;;5064564;28;20041;-69
2021/09/12 13:47:48;;;;;;;3.47;2.40;;;;;;;;;;5060207;28;20052;-69
2021/09/12 13:50:15;;;;;;;2.60;2.10;;;;;;;;;;5052008;28;20072;-69
2021/09/12 13:52:41;;;;;;;2.30;1.70;;;;;;;;;;5051560;28;20057;-69
2021/09/12 13:55:09;;;;;;;3.92;2.35;;;;;;;;;;5051681;28;20049;-69
2021/09/12 13:57:37;;;;;;;2.85;1.95;;;;;;;;;;5052033;28;20387;-69
2021/09/12 14:00:04;;;;;;;2.90;2.03;;;;;;;;;;5051022;28;20084;-68
2021/09/12 14:02:31;;;;;;;2.95;2.22;;;;;;;;;;5051384;28;20056;-69
2021/09/12 14:04:59;;;;;;;4.43;1.77;;;;;;;;;;5051853;28;20463;-69
2021/09/12 14:07:28;;;;;;;3.83;2.05;;;;;;;;;;5051411;28;20410;-69
2021/09/12 14:09:55;;;;;;;3.30;2.47;;;;;;;;;;5051722;28;20063;-69
2021/09/12 14:12:22;;;;;;;2.72;1.90;;;;;;;;;;5051915;28;20049;-68
2021/09/12 14:14:49;;;;;;;4.57;2.22;;;;;;;;;;5051698;28;20053;-68
2021/09/12 14:17:15;;;;;;;3.35;2.15;;;;;;;;;;5051346;28;20045;-68
2021/09/12 14:19:42;;;;;;;3.50;2.13;;;;;;;;;;5051440;28;20068;-69
2021/09/12 14:22:10;;;;;;;3.97;2.17;;;;;;;;;;5051547;28;20048;-69
2021/09/12 14:24:37;;;;;;;2.30;1.80;;;;;;;;;;5051077;28;20072;-69
2021/09/12 14:27:03;;;;;;;2.65;1.95;;;;;;;;;;5055910;28;20040;-69
2021/09/12 14:29:30;;;;;;;3.05;2.15;;;;;;;;;;5055656;28;20055;-68
2021/09/12 14:31:56;;;;;;;3.00;1.95;;;;;;;;;;5066728;28;20040;-69
2021/09/12 14:34:23;;;;;;;2.50;2.08;;;;;;;;;;5071245;28;20056;-68
2021/09/12 14:36:49;;;;;;;2.70;1.73;;;;;;;;;;5068684;28;20045;-68
2021/09/12 14:39:17;;;;;;;6.13;2.47;;;;;;;;;;5059418;28;20040;-68
2021/09/12 14:41:43;;;;;;;5.63;1.90;;;;;;;;;;5058714;28;20048;-68
2021/09/12 14:44:10;;;;;;;3.17;2.08;;;;;;;;;;5051146;28;20052;-68